createdAt,value
2023-09-28T00:00:27.554Z,73.70
2023-09-28T00:01:23.758Z,73.56
2023-09-28T00:01:57.511Z,73.77
2023-09-28T00:02:31.446Z,73.97
2023-09-28T00:03:07.137Z,73.87
2023-09-28T00:03:41.532Z,74.00
2023-09-28T00:04:15.312Z,74.06
2023-09-28T00:04:48.763Z,74.00
2023-09-28T00:05:22.801Z,74.07
2023-09-28T00:05:56.419Z,74.01
2023-09-28T00:06:30.429Z,73.82
2023-09-28T00:07:04.110Z,73.74
2023-09-28T00:07:37.936Z,73.71
2023-09-28T00:08:11.564Z,73.66
2023-09-28T00:08:45.159Z,73.73
2023-09-28T00:09:18.879Z,73.57
2023-09-28T00:09:52.616Z,73.47
2023-09-28T00:10:26.140Z,73.47
2023-09-28T00:11:00.791Z,73.50
2023-09-28T00:11:34.223Z,73.48
2023-09-28T00:12:07.747Z,73.56
2023-09-28T00:12:51.811Z,73.50
2023-09-28T00:13:25.523Z,73.39
2023-09-28T00:14:01.205Z,73.47
2023-09-28T00:14:38.331Z,73.40
2023-09-28T00:15:13.733Z,73.49
2023-09-28T00:15:48.299Z,73.43
2023-09-28T00:16:21.927Z,73.46
2023-09-28T00:16:56.628Z,73.58
2023-09-28T00:17:30.385Z,73.59
2023-09-28T00:18:05.370Z,73.65
2023-09-28T00:18:38.850Z,73.70
2023-09-28T00:19:12.461Z,73.70
2023-09-28T00:19:45.894Z,73.78
2023-09-28T00:20:21.741Z,73.78
2023-09-28T00:20:55.288Z,73.76
2023-09-28T00:21:28.814Z,73.87
2023-09-28T00:22:02.186Z,73.75
2023-09-28T00:22:36.204Z,73.74
2023-09-28T00:23:09.810Z,73.83
2023-09-28T00:23:43.261Z,73.65
2023-09-28T00:24:16.701Z,73.60
2023-09-28T00:24:50.088Z,73.37
2023-09-28T00:25:24.932Z,73.25
2023-09-28T00:25:58.942Z,73.08
2023-09-28T00:26:32.621Z,73.00
2023-09-28T00:27:07.005Z,72.91
2023-09-28T00:27:41.535Z,72.73
2023-09-28T00:28:15.123Z,72.72
2023-09-28T00:28:49.826Z,72.54
2023-09-28T00:29:23.406Z,72.35
2023-09-28T00:29:57.535Z,72.39
2023-09-28T00:30:31.840Z,72.15
2023-09-28T00:31:06.950Z,72.03
2023-09-28T00:31:40.675Z,71.97
2023-09-28T00:32:14.437Z,71.84
2023-09-28T00:32:49.050Z,71.82
2023-09-28T00:33:22.748Z,71.68
2023-09-28T00:33:56.588Z,71.63
2023-09-28T00:34:30.305Z,71.70
2023-09-28T00:35:05.755Z,71.68
2023-09-28T00:35:40.037Z,71.61
2023-09-28T00:36:13.889Z,71.71
2023-09-28T00:36:47.744Z,71.74
2023-09-28T00:37:21.288Z,71.75
2023-09-28T00:37:55.080Z,71.87
2023-09-28T00:38:28.842Z,71.97
2023-09-28T00:39:02.590Z,71.96
2023-09-28T00:39:36.831Z,72.10
2023-09-28T00:40:22.655Z,72.18
2023-09-28T00:40:56.342Z,72.19
2023-09-28T00:41:30.120Z,72.33
2023-09-28T00:42:06.728Z,72.56
2023-09-28T00:42:40.385Z,72.50
2023-09-28T00:43:13.929Z,72.68
2023-09-28T00:43:47.547Z,72.71
2023-09-28T00:44:21.104Z,72.91
2023-09-28T00:44:54.732Z,73.00
2023-09-28T00:45:29.732Z,73.14
2023-09-28T00:46:04.644Z,73.15
2023-09-28T00:46:39.096Z,73.34
2023-09-28T00:47:13.053Z,73.66
2023-09-28T00:47:47.470Z,73.75
2023-09-28T00:48:21.845Z,73.89
2023-09-28T00:49:06.734Z,73.91
2023-09-28T00:49:40.591Z,74.02
2023-09-28T00:50:17.530Z,74.08
2023-09-28T00:50:53.079Z,74.13
2023-09-28T00:51:29.229Z,74.19
2023-09-28T00:52:02.797Z,74.11
2023-09-28T00:52:42.232Z,74.11
2023-09-28T00:53:16.175Z,74.01
2023-09-28T00:53:49.663Z,73.91
2023-09-28T00:54:23.347Z,73.86
2023-09-28T00:55:00.498Z,73.85
2023-09-28T00:55:34.285Z,73.86
2023-09-28T00:56:09.215Z,73.78
2023-09-28T00:56:43.441Z,73.65
2023-09-28T00:57:19.003Z,73.66
2023-09-28T00:57:53.290Z,73.65
2023-09-28T00:58:26.825Z,73.48
2023-09-28T00:59:01.468Z,73.34
2023-09-28T00:59:35.292Z,73.23
2023-09-28T01:00:25.229Z,73.09
2023-09-28T01:01:01.810Z,72.88
2023-09-28T01:01:35.514Z,72.92
2023-09-28T01:02:09.615Z,72.85
2023-09-28T01:02:44.982Z,72.82
2023-09-28T01:03:18.769Z,72.85
2023-09-28T01:03:52.742Z,72.84
2023-09-28T01:04:27.807Z,72.75
2023-09-28T01:05:01.437Z,72.81
2023-09-28T01:05:35.940Z,72.85
2023-09-28T01:06:09.518Z,72.71
2023-09-28T01:06:43.258Z,72.67
2023-09-28T01:07:27.471Z,72.73
2023-09-28T01:08:13.133Z,72.63
2023-09-28T01:08:46.748Z,72.58
2023-09-28T01:09:20.222Z,72.61
2023-09-28T01:09:54.998Z,72.61
2023-09-28T01:10:30.925Z,72.56
2023-09-28T01:11:06.629Z,72.57
2023-09-28T01:11:42.155Z,72.60
2023-09-28T01:12:16.393Z,72.67
2023-09-28T01:12:50.231Z,72.71
2023-09-28T01:13:25.459Z,72.72
2023-09-28T01:13:59.521Z,72.84
2023-09-28T01:14:34.327Z,72.88
2023-09-28T01:15:12.646Z,72.87
2023-09-28T01:15:50.906Z,72.92
2023-09-28T01:16:25.140Z,72.95
2023-09-28T01:17:00.020Z,73.02
2023-09-28T01:17:34.012Z,73.02
2023-09-28T01:18:18.332Z,73.00
2023-09-28T01:18:52.073Z,73.08
2023-09-28T01:19:25.651Z,73.23
2023-09-28T01:20:01.058Z,73.28
2023-09-28T01:20:39.121Z,73.26
2023-09-28T01:21:12.920Z,73.47
2023-09-28T01:21:46.552Z,73.45
2023-09-28T01:22:20.052Z,73.56
2023-09-28T01:22:55.288Z,73.54
2023-09-28T01:23:28.734Z,73.65
2023-09-28T01:24:04.090Z,73.61
2023-09-28T01:24:38.062Z,73.67
2023-09-28T01:25:12.725Z,73.61
2023-09-28T01:25:48.877Z,73.69
2023-09-28T01:26:23.047Z,73.64
2023-09-28T01:26:56.620Z,73.70
2023-09-28T01:27:30.322Z,73.73
2023-09-28T01:28:05.223Z,73.77
2023-09-28T01:28:39.983Z,73.79
2023-09-28T01:29:13.527Z,73.82
2023-09-28T01:29:47.136Z,73.81
2023-09-28T01:30:20.831Z,73.76
2023-09-28T01:30:54.650Z,73.94
2023-09-28T01:31:29.161Z,73.83
2023-09-28T01:32:03.551Z,73.79
2023-09-28T01:32:37.961Z,73.83
2023-09-28T01:33:11.715Z,73.77
2023-09-28T01:33:45.503Z,73.69
2023-09-28T01:34:19.216Z,73.51
2023-09-28T01:34:52.937Z,73.48
2023-09-28T01:35:28.796Z,73.49
2023-09-28T01:36:02.584Z,73.41
2023-09-28T01:36:36.596Z,73.43
2023-09-28T01:37:10.566Z,73.36
2023-09-28T01:37:52.950Z,73.24
2023-09-28T01:39:02.896Z,73.23
2023-09-28T01:39:36.962Z,73.19
2023-09-28T01:40:11.049Z,73.30
2023-09-28T01:40:45.669Z,73.42
2023-09-28T01:41:19.286Z,73.37
2023-09-28T01:41:52.902Z,73.39
2023-09-28T01:42:26.687Z,73.39
2023-09-28T01:43:00.402Z,73.47
2023-09-28T01:43:36.593Z,73.41
2023-09-28T01:44:10.417Z,73.41
2023-09-28T01:44:44.263Z,73.47
2023-09-28T01:45:18.735Z,73.41
2023-09-28T01:45:52.490Z,73.52
2023-09-28T01:46:26.204Z,73.42
2023-09-28T01:46:59.945Z,73.53
2023-09-28T01:47:33.854Z,73.60
2023-09-28T01:48:08.105Z,73.71
2023-09-28T01:48:41.930Z,73.73
2023-09-28T01:50:44.732Z,73.84
2023-09-28T01:51:18.229Z,73.74
2023-09-28T01:51:51.674Z,73.96
2023-09-28T01:52:25.167Z,74.18
2023-09-28T01:52:58.711Z,74.23
2023-09-28T01:53:32.153Z,74.34
2023-09-28T01:54:06.217Z,74.51
2023-09-28T01:54:39.681Z,74.67
2023-09-28T01:55:13.279Z,74.68
2023-09-28T01:55:48.697Z,74.81
2023-09-28T01:56:22.770Z,74.81
2023-09-28T01:56:56.439Z,74.86
2023-09-28T01:57:30.029Z,74.86
2023-09-28T01:58:09.398Z,74.92
2023-09-28T01:58:42.951Z,74.97
2023-09-28T01:59:16.476Z,75.05
2023-09-28T01:59:49.989Z,75.20
2023-09-28T02:00:26.601Z,75.09
2023-09-28T02:01:00.148Z,74.98
2023-09-28T02:01:33.810Z,75.15
2023-09-28T02:02:07.388Z,75.22
2023-09-28T02:02:41.330Z,75.18
2023-09-28T02:03:16.548Z,75.21
2023-09-28T02:03:50.043Z,75.33
2023-09-28T02:04:24.223Z,75.23
2023-09-28T02:04:58.174Z,75.16
2023-09-28T02:05:34.178Z,75.25
2023-09-28T02:06:07.734Z,75.24
2023-09-28T02:06:41.080Z,75.24
2023-09-28T02:07:15.805Z,75.18
2023-09-28T02:07:50.374Z,75.19
2023-09-28T02:08:23.825Z,75.14
2023-09-28T02:08:57.135Z,75.06
2023-09-28T02:09:30.631Z,75.14
2023-09-28T02:10:06.001Z,75.31
2023-09-28T02:10:39.503Z,75.26
2023-09-28T02:11:13.048Z,75.20
2023-09-28T02:11:46.717Z,75.19
2023-09-28T02:12:20.941Z,75.23
2023-09-28T02:12:54.608Z,75.28
2023-09-28T02:13:28.029Z,75.34
2023-09-28T02:14:01.871Z,75.43
2023-09-28T02:14:35.508Z,75.45
2023-09-28T02:15:11.313Z,75.52
2023-09-28T02:15:44.947Z,75.53
2023-09-28T02:16:18.952Z,75.55
2023-09-28T02:16:52.590Z,75.61
2023-09-28T02:17:26.086Z,75.56
2023-09-28T02:17:59.634Z,75.58
2023-09-28T02:18:33.210Z,75.62
2023-09-28T02:19:07.109Z,75.56
2023-09-28T02:19:40.644Z,75.55
2023-09-28T02:20:17.320Z,75.54
2023-09-28T02:20:51.126Z,75.52
2023-09-28T02:21:24.590Z,75.45
2023-09-28T02:21:58.379Z,75.49
2023-09-28T02:22:31.914Z,75.45
2023-09-28T02:23:05.497Z,75.36
2023-09-28T02:23:38.784Z,75.18
2023-09-28T02:24:12.621Z,75.21
2023-09-28T02:24:48.290Z,74.94
2023-09-28T02:25:25.358Z,75.00
2023-09-28T02:26:06.935Z,74.72
2023-09-28T02:26:40.464Z,74.63
2023-09-28T02:27:14.622Z,74.58
2023-09-28T02:27:49.188Z,74.60
2023-09-28T02:28:22.661Z,74.52
2023-09-28T02:28:56.098Z,74.39
2023-09-28T02:29:29.570Z,74.42
2023-09-28T02:30:04.722Z,74.30
2023-09-28T02:30:38.046Z,74.19
2023-09-28T02:31:11.488Z,74.18
2023-09-28T02:31:45.133Z,74.12
2023-09-28T02:32:18.737Z,74.05
2023-09-28T02:32:53.770Z,73.93
2023-09-28T02:33:27.282Z,73.93
2023-09-28T02:34:00.863Z,73.84
2023-09-28T02:34:34.863Z,73.89
2023-09-28T02:35:08.902Z,73.81
2023-09-28T02:35:42.216Z,73.80
2023-09-28T02:36:16.322Z,73.86
2023-09-28T02:36:49.826Z,73.87
2023-09-28T02:37:23.414Z,73.89
2023-09-28T02:37:57.011Z,73.87
2023-09-28T02:38:30.893Z,73.83
2023-09-28T02:39:08.774Z,74.00
2023-09-28T02:39:42.579Z,73.99
2023-09-28T02:40:17.256Z,73.99
2023-09-28T02:40:50.732Z,73.98
2023-09-28T02:41:24.512Z,74.12
2023-09-28T02:41:57.971Z,74.07
2023-09-28T02:42:31.436Z,74.02
2023-09-28T02:43:04.914Z,73.93
2023-09-28T02:43:38.408Z,73.95
2023-09-28T02:44:11.997Z,73.89
2023-09-28T02:44:45.936Z,73.88
2023-09-28T02:45:19.350Z,73.91
2023-09-28T02:45:53.297Z,73.82
2023-09-28T02:46:27.924Z,73.88
2023-09-28T02:47:01.821Z,73.95
2023-09-28T02:47:35.704Z,73.94
2023-09-28T02:48:09.986Z,73.87
2023-09-28T02:48:43.494Z,73.90
2023-09-28T02:49:16.893Z,73.95
2023-09-28T02:49:50.429Z,73.84
2023-09-28T02:50:23.864Z,73.82
2023-09-28T02:50:57.246Z,73.91
2023-09-28T02:51:30.610Z,73.91
2023-09-28T02:52:07.589Z,73.83
2023-09-28T02:52:42.644Z,73.79
2023-09-28T02:53:16.356Z,73.80
2023-09-28T02:53:50.299Z,73.74
2023-09-28T02:54:23.716Z,73.74
2023-09-28T02:54:57.126Z,73.65
2023-09-28T02:55:30.444Z,73.45
2023-09-28T02:56:07.028Z,73.48
2023-09-28T02:56:40.683Z,73.24
2023-09-28T02:57:14.564Z,73.20
2023-09-28T02:57:49.035Z,73.14
2023-09-28T02:58:23.666Z,73.12
2023-09-28T02:58:58.314Z,73.09
2023-09-28T02:59:32.732Z,73.12
2023-09-28T03:00:25.165Z,73.08
2023-09-28T03:00:59.129Z,73.21
2023-09-28T03:01:32.536Z,73.36
2023-09-28T03:02:06.786Z,73.30
2023-09-28T03:02:40.409Z,73.45
2023-09-28T03:03:13.980Z,73.47
2023-09-28T03:03:47.327Z,73.39
2023-09-28T03:04:20.571Z,73.48
2023-09-28T03:04:54.212Z,73.48
2023-09-28T03:05:29.653Z,73.45
2023-09-28T03:06:05.926Z,73.56
2023-09-28T03:06:41.795Z,73.50
2023-09-28T03:07:15.220Z,73.49
2023-09-28T03:07:49.205Z,73.56
2023-09-28T03:08:25.616Z,73.55
2023-09-28T03:08:58.986Z,73.60
2023-09-28T03:09:34.207Z,73.52
2023-09-28T03:10:08.471Z,73.51
2023-09-28T03:10:46.003Z,73.53
2023-09-28T03:11:19.523Z,73.53
2023-09-28T03:11:52.932Z,73.73
2023-09-28T03:12:26.354Z,73.79
2023-09-28T03:12:59.906Z,73.63
2023-09-28T03:13:33.559Z,73.68
2023-09-28T03:14:09.216Z,73.73
2023-09-28T03:14:43.372Z,73.66
2023-09-28T03:15:17.903Z,73.47
2023-09-28T03:15:51.348Z,73.49
2023-09-28T03:16:24.786Z,73.45
2023-09-28T03:16:58.348Z,73.47
2023-09-28T03:17:31.688Z,73.46
2023-09-28T03:18:05.673Z,73.35
2023-09-28T03:18:39.475Z,73.47
2023-09-28T03:19:12.859Z,73.51
2023-09-28T03:19:46.274Z,73.56
2023-09-28T03:20:20.884Z,73.54
2023-09-28T03:20:54.714Z,73.61
2023-09-28T03:21:31.010Z,73.70
2023-09-28T03:22:04.204Z,73.56
2023-09-28T03:22:37.630Z,73.65
2023-09-28T03:23:10.880Z,73.68
2023-09-28T03:23:44.425Z,73.73
2023-09-28T03:24:17.785Z,73.79
2023-09-28T03:24:51.131Z,73.68
2023-09-28T03:25:24.473Z,73.75
2023-09-28T03:25:57.827Z,73.76
2023-09-28T03:26:31.871Z,73.83
2023-09-28T03:27:10.896Z,73.84
2023-09-28T03:27:46.631Z,73.87
2023-09-28T03:28:20.177Z,73.82
2023-09-28T03:28:53.739Z,73.86
2023-09-28T03:29:27.124Z,73.90
2023-09-28T03:30:00.559Z,73.98
2023-09-28T03:30:34.058Z,73.99
2023-09-28T03:31:07.821Z,73.89
2023-09-28T03:31:41.708Z,74.03
2023-09-28T03:32:15.178Z,73.99
2023-09-28T03:32:49.226Z,73.98
2023-09-28T03:33:22.677Z,73.97
2023-09-28T03:33:56.708Z,74.01
2023-09-28T03:34:30.078Z,74.05
2023-09-28T03:35:05.553Z,74.21
2023-09-28T03:35:38.863Z,74.16
2023-09-28T03:36:14.081Z,74.18
2023-09-28T03:36:47.707Z,74.26
2023-09-28T03:37:21.073Z,74.44
2023-09-28T03:37:55.766Z,74.37
2023-09-28T03:38:29.312Z,74.35
2023-09-28T03:39:02.648Z,74.40
2023-09-28T03:39:36.157Z,74.59
2023-09-28T03:40:12.230Z,74.50
2023-09-28T03:40:46.091Z,74.45
2023-09-28T03:41:19.645Z,74.54
2023-09-28T03:41:53.012Z,74.48
2023-09-28T03:42:27.373Z,74.51
2023-09-28T03:43:00.934Z,74.49
2023-09-28T03:43:34.900Z,74.49
2023-09-28T03:44:08.857Z,74.45
2023-09-28T03:44:42.198Z,74.49
2023-09-28T03:45:17.793Z,74.44
2023-09-28T03:45:51.417Z,74.34
2023-09-28T03:46:25.062Z,74.37
2023-09-28T03:46:58.600Z,74.22
2023-09-28T03:47:34.777Z,74.29
2023-09-28T03:48:08.186Z,74.15
2023-09-28T03:48:41.489Z,74.03
2023-09-28T03:49:14.954Z,74.02
2023-09-28T03:49:48.493Z,74.05
2023-09-28T03:50:24.192Z,73.94
2023-09-28T03:50:58.308Z,74.02
2023-09-28T03:51:31.772Z,74.08
2023-09-28T03:52:05.122Z,74.11
2023-09-28T03:52:39.091Z,74.22
2023-09-28T03:53:12.500Z,74.30
2023-09-28T03:53:45.828Z,74.34
2023-09-28T03:54:19.482Z,74.34
2023-09-28T03:54:53.637Z,74.32
2023-09-28T03:55:26.973Z,74.26
2023-09-28T03:56:00.495Z,74.16
2023-09-28T03:56:34.032Z,74.05
2023-09-28T03:57:07.480Z,73.84
2023-09-28T03:57:42.518Z,73.68
2023-09-28T03:58:17.110Z,73.55
2023-09-28T03:58:53.222Z,73.50
2023-09-28T03:59:26.712Z,73.43
2023-09-28T04:00:00.220Z,73.47
2023-09-28T04:00:33.490Z,73.50
2023-09-28T04:01:09.004Z,73.47
2023-09-28T04:01:46.281Z,73.49
2023-09-28T04:02:19.875Z,73.49
2023-09-28T04:02:55.710Z,73.42
2023-09-28T04:03:29.973Z,73.39
2023-09-28T04:04:06.650Z,73.43
2023-09-28T04:04:40.090Z,73.42
2023-09-28T04:05:13.510Z,73.44
2023-09-28T04:05:46.889Z,73.40
2023-09-28T04:06:20.193Z,73.35
2023-09-28T04:06:53.560Z,73.40
2023-09-28T04:07:26.931Z,73.42
2023-09-28T04:08:00.492Z,73.43
2023-09-28T04:08:33.999Z,73.45
2023-09-28T04:09:09.209Z,73.60
2023-09-28T04:09:42.585Z,73.44
2023-09-28T04:10:16.040Z,73.57
2023-09-28T04:10:51.467Z,73.57
2023-09-28T04:11:24.906Z,73.22
2023-09-28T04:11:58.287Z,73.15
2023-09-28T04:12:31.912Z,72.99
2023-09-28T04:13:05.279Z,72.87
2023-09-28T04:13:38.663Z,72.93
2023-09-28T04:14:12.241Z,72.96
2023-09-28T04:14:45.689Z,72.89
2023-09-28T04:15:19.114Z,73.15
2023-09-28T04:15:52.688Z,73.24
2023-09-28T04:16:26.010Z,73.35
2023-09-28T04:16:59.488Z,73.42
2023-09-28T04:17:35.740Z,73.55
2023-09-28T04:18:09.360Z,73.72
2023-09-28T04:18:42.748Z,73.88
2023-09-28T04:19:16.059Z,73.88
2023-09-28T04:19:50.227Z,73.86
2023-09-28T04:20:23.971Z,73.99
2023-09-28T04:20:57.806Z,73.96
2023-09-28T04:21:31.882Z,73.96
2023-09-28T04:22:05.211Z,74.13
2023-09-28T04:22:38.568Z,74.16
2023-09-28T04:23:14.047Z,74.14
2023-09-28T04:23:47.492Z,74.11
2023-09-28T04:24:20.820Z,74.17
2023-09-28T04:24:54.273Z,74.38
2023-09-28T04:25:30.451Z,74.38
2023-09-28T04:26:06.978Z,74.54
2023-09-28T04:26:41.917Z,74.60
2023-09-28T04:27:19.029Z,74.59
2023-09-28T04:27:53.873Z,74.73
2023-09-28T04:28:27.456Z,74.74
2023-09-28T04:29:00.909Z,74.82
2023-09-28T04:29:34.947Z,74.95
2023-09-28T04:30:10.278Z,75.01
2023-09-28T04:30:44.874Z,75.10
2023-09-28T04:31:18.562Z,75.12
2023-09-28T04:31:52.592Z,75.21
2023-09-28T04:32:26.184Z,75.27
2023-09-28T04:32:59.650Z,75.43
2023-09-28T04:33:33.230Z,75.46
2023-09-28T04:34:08.683Z,75.45
2023-09-28T04:34:42.117Z,75.55
2023-09-28T04:35:15.882Z,75.49
2023-09-28T04:35:51.073Z,75.65
2023-09-28T04:36:25.498Z,75.72
2023-09-28T04:36:59.326Z,75.75
2023-09-28T04:37:32.817Z,75.76
2023-09-28T04:38:06.360Z,75.88
2023-09-28T04:38:39.884Z,75.84
2023-09-28T04:39:13.233Z,75.80
2023-09-28T04:39:46.636Z,75.83
2023-09-28T04:40:25.828Z,75.66
2023-09-28T04:41:02.186Z,75.53
2023-09-28T04:41:35.875Z,75.63
2023-09-28T04:42:09.265Z,75.66
2023-09-28T04:42:43.930Z,75.60
2023-09-28T04:43:17.336Z,75.55
2023-09-28T04:43:50.706Z,75.53
2023-09-28T04:44:24.846Z,75.57
2023-09-28T04:44:58.286Z,75.46
2023-09-28T04:45:31.636Z,75.60
2023-09-28T04:46:06.880Z,75.67
2023-09-28T04:46:40.265Z,75.75
2023-09-28T04:47:14.266Z,75.79
2023-09-28T04:47:48.620Z,75.76
2023-09-28T04:48:22.758Z,75.93
2023-09-28T04:48:56.432Z,75.84
2023-09-28T04:49:29.805Z,76.04
2023-09-28T04:50:05.014Z,75.85
2023-09-28T04:50:38.500Z,76.06
2023-09-28T04:51:12.121Z,76.02
2023-09-28T04:51:45.896Z,76.16
2023-09-28T04:52:19.450Z,76.45
2023-09-28T04:52:52.790Z,76.25
2023-09-28T04:53:26.415Z,76.25
2023-09-28T04:54:04.223Z,76.14
2023-09-28T04:54:38.078Z,76.14
2023-09-28T04:55:11.852Z,76.28
2023-09-28T04:55:45.204Z,76.31
2023-09-28T04:56:19.369Z,76.24
2023-09-28T04:56:52.908Z,76.36
2023-09-28T04:57:26.930Z,76.26
2023-09-28T04:58:00.398Z,76.21
2023-09-28T04:58:33.854Z,76.20
2023-09-28T04:59:07.334Z,76.14
2023-09-28T04:59:41.751Z,76.23
2023-09-28T05:00:17.968Z,76.31
2023-09-28T05:00:51.689Z,76.31
2023-09-28T05:01:25.350Z,76.49
2023-09-28T05:01:58.938Z,76.38
2023-09-28T05:02:32.308Z,76.41
2023-09-28T05:03:06.310Z,76.34
2023-09-28T05:03:39.738Z,76.32
2023-09-28T05:04:14.469Z,76.51
2023-09-28T05:04:47.890Z,76.28
2023-09-28T05:05:21.691Z,76.26
2023-09-28T05:05:56.677Z,76.22
2023-09-28T05:06:30.122Z,76.25
2023-09-28T05:07:04.289Z,76.10
2023-09-28T05:07:37.741Z,76.02
2023-09-28T05:08:13.766Z,75.99
2023-09-28T05:08:47.499Z,75.93
2023-09-28T05:09:20.816Z,75.82
2023-09-28T05:09:54.225Z,75.79
2023-09-28T05:10:27.864Z,75.83
2023-09-28T05:11:01.263Z,75.76
2023-09-28T05:11:34.707Z,75.68
2023-09-28T05:12:08.251Z,75.64
2023-09-28T05:12:41.603Z,75.58
2023-09-28T05:13:15.480Z,75.48
2023-09-28T05:13:49.333Z,75.44
2023-09-28T05:14:25.578Z,75.39
2023-09-28T05:14:59.043Z,75.26
2023-09-28T05:15:32.533Z,75.31
2023-09-28T05:16:05.986Z,75.12
2023-09-28T05:16:39.335Z,75.15
2023-09-28T05:17:12.773Z,75.05
2023-09-28T05:17:46.375Z,75.00
2023-09-28T05:18:19.739Z,74.86
2023-09-28T05:18:53.150Z,74.79
2023-09-28T05:19:27.231Z,74.84
2023-09-28T05:20:00.647Z,74.78
2023-09-28T05:20:34.242Z,74.65
2023-09-28T05:21:07.600Z,74.63
2023-09-28T05:21:41.091Z,74.65
2023-09-28T05:22:14.701Z,74.57
2023-09-28T05:22:48.108Z,74.58
2023-09-28T05:23:21.749Z,74.57
2023-09-28T05:23:55.336Z,74.57
2023-09-28T05:24:28.918Z,74.60
2023-09-28T05:25:02.655Z,74.55
2023-09-28T05:25:36.185Z,74.59
2023-09-28T05:26:09.719Z,74.63
2023-09-28T05:26:43.603Z,74.63
2023-09-28T05:27:17.014Z,74.49
2023-09-28T05:27:50.751Z,74.45
2023-09-28T05:28:24.233Z,74.22
2023-09-28T05:28:59.735Z,74.28
2023-09-28T05:29:33.071Z,74.23
2023-09-28T05:30:07.254Z,74.17
2023-09-28T05:30:40.659Z,74.18
2023-09-28T05:31:14.196Z,74.25
2023-09-28T05:31:48.617Z,74.23
2023-09-28T05:32:22.265Z,74.27
2023-09-28T05:32:55.844Z,74.26
2023-09-28T05:33:29.310Z,74.18
2023-09-28T05:34:02.689Z,74.22
2023-09-28T05:34:36.745Z,74.23
2023-09-28T05:35:10.464Z,74.09
2023-09-28T05:35:44.105Z,74.04
2023-09-28T05:36:17.447Z,74.16
2023-09-28T05:36:50.782Z,74.06
2023-09-28T05:37:24.199Z,74.09
2023-09-28T05:37:57.631Z,74.13
2023-09-28T05:38:31.024Z,74.11
2023-09-28T05:39:04.886Z,74.13
2023-09-28T05:39:39.052Z,74.18
2023-09-28T05:40:13.163Z,74.14
2023-09-28T05:40:46.543Z,74.17
2023-09-28T05:41:20.042Z,74.25
2023-09-28T05:41:53.510Z,74.31
2023-09-28T05:42:26.866Z,74.27
2023-09-28T05:43:00.366Z,74.29
2023-09-28T05:43:33.762Z,74.42
2023-09-28T05:44:11.211Z,74.47
2023-09-28T05:44:46.385Z,74.54
2023-09-28T05:45:19.907Z,74.72
2023-09-28T05:45:53.351Z,74.78
2023-09-28T05:46:27.192Z,74.98
2023-09-28T05:47:01.299Z,74.94
2023-09-28T05:47:36.220Z,75.22
2023-09-28T05:48:09.740Z,75.39
2023-09-28T05:48:43.200Z,75.26
2023-09-28T05:49:17.811Z,75.07
2023-09-28T05:49:53.674Z,75.05
2023-09-28T05:50:27.145Z,75.19
2023-09-28T05:51:00.584Z,75.25
2023-09-28T05:51:34.596Z,75.15
2023-09-28T05:52:07.978Z,75.10
2023-09-28T05:52:41.705Z,75.00
2023-09-28T05:53:15.091Z,74.96
2023-09-28T05:53:49.175Z,74.87
2023-09-28T05:54:22.805Z,74.73
2023-09-28T05:54:56.106Z,74.73
2023-09-28T05:55:29.482Z,74.66
2023-09-28T05:56:04.759Z,74.62
2023-09-28T05:56:38.044Z,74.57
2023-09-28T05:57:11.747Z,74.59
2023-09-28T05:57:45.235Z,74.59
2023-09-28T05:58:18.800Z,74.53
2023-09-28T05:58:52.294Z,74.62
2023-09-28T05:59:25.989Z,74.43
2023-09-28T05:59:59.500Z,74.38
2023-09-28T06:00:32.911Z,74.49
2023-09-28T06:01:09.503Z,74.29
2023-09-28T06:01:43.183Z,74.44
2023-09-28T06:02:16.688Z,74.42
2023-09-28T06:02:50.124Z,74.50
2023-09-28T06:03:23.730Z,74.44
2023-09-28T06:03:57.587Z,74.57
2023-09-28T06:04:31.192Z,74.56
2023-09-28T06:05:04.811Z,74.47
2023-09-28T06:05:38.433Z,74.45
2023-09-28T06:06:19.445Z,74.53
2023-09-28T06:06:53.134Z,74.68
2023-09-28T06:07:26.601Z,74.57
2023-09-28T06:08:01.359Z,74.66
2023-09-28T06:08:35.146Z,74.62
2023-09-28T06:09:08.650Z,75.06
2023-09-28T06:09:42.831Z,74.90
2023-09-28T06:10:18.995Z,74.84
2023-09-28T06:11:06.656Z,74.95
2023-09-28T06:11:47.342Z,75.18
2023-09-28T06:12:20.720Z,75.08
2023-09-28T06:12:54.167Z,75.09
2023-09-28T06:13:27.671Z,75.24
2023-09-28T06:14:08.279Z,75.47
2023-09-28T06:14:42.041Z,76.11
2023-09-28T06:15:15.522Z,75.96
2023-09-28T06:15:49.082Z,76.73
2023-09-28T06:16:22.651Z,77.07
2023-09-28T06:16:56.324Z,77.63
2023-09-28T06:17:29.936Z,78.12
2023-09-28T06:18:03.677Z,78.38
2023-09-28T06:18:37.563Z,78.93
2023-09-28T06:19:13.551Z,79.31
2023-09-28T06:20:29.112Z,79.87
2023-09-28T06:21:02.630Z,80.31
2023-09-28T06:21:36.812Z,80.38
2023-09-28T06:22:11.155Z,80.31
2023-09-28T06:22:44.721Z,80.49
2023-09-28T06:23:18.554Z,80.80
2023-09-28T06:23:52.140Z,81.05
2023-09-28T06:24:26.952Z,81.04
2023-09-28T06:25:00.531Z,81.13
2023-09-28T06:25:34.153Z,81.52
2023-09-28T06:26:07.848Z,81.65
2023-09-28T06:26:43.772Z,81.41
2023-09-28T06:27:17.486Z,81.40
2023-09-28T06:27:51.128Z,81.40
2023-09-28T06:28:27.657Z,81.42
2023-09-28T06:29:01.792Z,81.51
2023-09-28T06:29:35.574Z,81.46
2023-09-28T06:30:09.742Z,81.45
2023-09-28T06:30:43.274Z,81.59
2023-09-28T06:31:20.302Z,81.67
2023-09-28T06:31:53.824Z,81.64
2023-09-28T06:32:27.490Z,81.61
2023-09-28T06:33:01.226Z,81.96
2023-09-28T06:33:34.847Z,81.89
2023-09-28T06:34:08.867Z,82.03
2023-09-28T06:34:42.325Z,82.28
2023-09-28T06:35:15.981Z,82.66
2023-09-28T06:35:49.689Z,82.74
2023-09-28T06:36:41.273Z,83.04
2023-09-28T06:37:16.418Z,83.02
2023-09-28T06:37:51.212Z,83.26
2023-09-28T06:38:24.746Z,83.23
2023-09-28T06:38:58.221Z,83.56
2023-09-28T06:39:31.799Z,83.69
2023-09-28T06:40:05.727Z,83.83
2023-09-28T06:40:49.965Z,83.95
2023-09-28T06:41:23.950Z,83.92
2023-09-28T06:42:05.521Z,83.47
2023-09-28T06:42:46.405Z,83.46
2023-09-28T06:43:19.975Z,83.86
2023-09-28T06:43:53.493Z,84.31
2023-09-28T06:44:28.304Z,83.96
2023-09-28T06:45:01.812Z,83.67
2023-09-28T06:45:35.498Z,83.83
2023-09-28T06:46:09.965Z,83.91
2023-09-28T06:46:46.208Z,84.05
2023-09-28T06:47:19.622Z,83.92
2023-09-28T06:48:05.109Z,83.92
2023-09-28T06:48:48.404Z,84.46
2023-09-28T06:49:22.067Z,83.96
2023-09-28T06:49:55.606Z,83.98
2023-09-28T06:50:30.639Z,84.30
2023-09-28T06:51:04.152Z,84.10
2023-09-28T06:51:38.759Z,84.20
2023-09-28T06:52:12.474Z,84.35
2023-09-28T06:52:45.952Z,84.43
2023-09-28T06:53:19.684Z,84.37
2023-09-28T06:53:53.211Z,84.23
2023-09-28T06:54:26.795Z,84.19
2023-09-28T06:55:00.172Z,84.20
2023-09-28T06:55:33.712Z,84.33
2023-09-28T06:56:14.504Z,84.36
2023-09-28T06:56:51.402Z,84.16
2023-09-28T06:57:24.891Z,83.95
2023-09-28T06:57:58.757Z,84.01
2023-09-28T06:58:32.216Z,84.13
2023-09-28T06:59:05.568Z,84.21
2023-09-28T06:59:39.169Z,84.26
2023-09-28T07:00:18.361Z,84.02
2023-09-28T07:00:52.077Z,84.11
2023-09-28T07:01:25.622Z,84.06
2023-09-28T07:01:59.055Z,84.02
2023-09-28T07:02:32.859Z,83.97
2023-09-28T07:03:06.887Z,84.09
2023-09-28T07:03:40.438Z,83.94
2023-09-28T07:04:13.767Z,83.87
2023-09-28T07:04:47.180Z,83.87
2023-09-28T07:05:20.797Z,83.94
2023-09-28T07:05:54.216Z,83.66
2023-09-28T07:06:27.735Z,83.58
2023-09-28T07:07:01.278Z,83.81
2023-09-28T07:07:34.966Z,83.76
2023-09-28T07:08:08.394Z,83.63
2023-09-28T07:08:41.791Z,83.64
2023-09-28T07:09:15.222Z,83.66
2023-09-28T07:09:56.940Z,83.49
2023-09-28T07:10:30.459Z,83.44
2023-09-28T07:11:04.005Z,83.35
2023-09-28T07:11:37.501Z,82.82
2023-09-28T07:12:12.007Z,82.85
2023-09-28T07:12:45.428Z,82.87
2023-09-28T07:13:18.772Z,82.73
2023-09-28T07:13:52.423Z,82.79
2023-09-28T07:14:25.855Z,83.15
2023-09-28T07:14:59.644Z,82.99
2023-09-28T07:15:34.518Z,83.24
2023-09-28T07:16:09.487Z,82.93
2023-09-28T07:16:43.316Z,82.65
2023-09-28T07:17:16.852Z,82.81
2023-09-28T07:17:50.580Z,82.78
2023-09-28T07:18:24.121Z,82.86
2023-09-28T07:18:57.693Z,82.90
2023-09-28T07:19:31.197Z,82.66
2023-09-28T07:20:05.351Z,82.55
2023-09-28T07:20:38.982Z,82.52
2023-09-28T07:21:12.432Z,82.66
2023-09-28T07:21:45.929Z,82.71
2023-09-28T07:22:22.293Z,82.67
2023-09-28T07:22:56.032Z,82.70
2023-09-28T07:23:29.428Z,82.58
2023-09-28T07:24:16.672Z,82.23
2023-09-28T07:24:52.264Z,82.07
2023-09-28T07:25:29.213Z,82.09
2023-09-28T07:26:02.779Z,82.12